Time;durP1;ratioP1;P1;durP2;ratioP2;P2;SDS_P1;SDS_P2;PMS_P1;PMS_P2;Temp;Humidity;BMP_temperature;BMP_pressure;BME280_temperature;BME280_humidity;BME280_pressure;Samples;Min_cycle;Max_cycle;Signal;HPM_P1;HPM_P2
2023/05/04 00:03:18;;;;;;;9.73;4.53;;;8.60;99.90;;;;;;7302610;32;20329;-53
2023/05/04 00:07:20;;;;;;;6.90;3.40;;;8.50;99.90;;;;;;7309448;32;20202;-56
2023/05/04 00:11:22;;;;;;;8.52;4.00;;;8.50;99.90;;;;;;7309853;32;20596;-56
2023/05/04 00:15:24;;;;;;;11.45;3.83;;;8.40;99.90;;;;;;7309149;32;20459;-55
2023/05/04 00:19:25;;;;;;;10.73;4.22;;;8.30;99.90;;;;;;7308887;32;20119;-56
2023/05/04 00:23:27;;;;;;;7.50;3.80;;;8.10;99.90;;;;;;7307861;32;20127;-57
2023/05/04 00:27:29;;;;;;;8.98;3.87;;;8.00;99.90;;;;;;7309812;32;20116;-56
2023/05/04 00:31:30;;;;;;;6.03;3.17;;;7.90;99.90;;;;;;7302818;32;20116;-56
2023/05/04 00:35:32;;;;;;;7.03;3.33;;;7.90;99.90;;;;;;7306820;32;20603;-58
2023/05/04 00:39:34;;;;;;;9.50;3.50;;;7.80;99.90;;;;;;7303008;32;20217;-55
2023/05/04 00:43:36;;;;;;;7.72;4.03;;;7.70;99.90;;;;;;7308036;32;20303;-56
2023/05/04 00:47:37;;;;;;;6.30;4.35;;;7.60;99.90;;;;;;7310174;32;20112;-55
2023/05/04 00:51:39;;;;;;;9.65;3.83;;;7.40;99.90;;;;;;7307076;32;20165;-56
2023/05/04 00:55:41;;;;;;;8.18;3.97;;;7.40;99.90;;;;;;7305191;32;20177;-57
2023/05/04 00:59:43;;;;;;;4.85;3.30;;;7.30;99.90;;;;;;7307577;32;20116;-57
2023/05/04 01:03:45;;;;;;;7.70;4.20;;;7.10;99.90;;;;;;7303363;32;20233;-56
2023/05/04 01:07:54;;;;;;;8.68;4.22;;;7.00;99.90;;;;;;7306416;32;20249;-55
2023/05/04 01:12:10;;;;;;;6.93;3.80;;;6.90;99.90;;;;;;7303506;32;20141;-56
2023/05/04 01:16:12;;;;;;;6.68;4.05;;;6.70;99.90;;;;;;7302608;32;20112;-56
2023/05/04 01:20:14;;;;;;;7.45;4.07;;;6.60;99.90;;;;;;7311205;32;20705;-54
2023/05/04 01:24:16;;;;;;;8.75;4.30;;;6.50;99.90;;;;;;7307289;32;20167;-54
2023/05/04 01:28:25;;;;;;;8.00;3.92;;;6.40;99.90;;;;;;7304883;32;20529;-55
2023/05/04 01:32:29;;;;;;;6.70;4.03;;;6.30;99.90;;;;;;7303417;32;20139;-55
2023/05/04 01:36:31;;;;;;;7.90;3.70;;;6.20;99.90;;;;;;7309821;32;20127;-54
2023/05/04 01:40:33;;;;;;;6.30;4.20;;;6.10;99.90;;;;;;7305938;32;20111;-55
2023/05/04 01:44:35;;;;;;;7.70;3.75;;;6.00;99.90;;;;;;7301591;32;20207;-54
2023/05/04 01:48:36;;;;;;;5.10;3.97;;;5.90;99.90;;;;;;7304428;32;20273;-55
2023/05/04 01:52:38;;;;;;;7.70;4.15;;;5.90;99.90;;;;;;7307569;32;20104;-54
2023/05/04 01:56:40;;;;;;;7.32;3.85;;;5.90;99.90;;;;;;7305645;32;20192;-55
2023/05/04 02:00:42;;;;;;;8.68;3.90;;;5.80;99.90;;;;;;7308620;32;20189;-54
2023/05/04 02:04:43;;;;;;;9.02;4.50;;;5.70;99.90;;;;;;7310275;32;20785;-54
2023/05/04 02:08:45;;;;;;;10.38;4.72;;;5.60;99.90;;;;;;7307798;32;20204;-54
2023/05/04 02:12:47;;;;;;;10.15;5.62;;;5.50;99.90;;;;;;7309390;32;20237;-54
2023/05/04 02:16:49;;;;;;;8.13;4.30;;;5.50;99.90;;;;;;7312681;32;20146;-53
2023/05/04 02:20:50;;;;;;;7.53;4.55;;;5.40;99.90;;;;;;7297412;32;20154;-56
2023/05/04 02:24:52;;;;;;;7.97;4.35;;;5.40;99.90;;;;;;7303845;32;20302;-54
2023/05/04 02:28:54;;;;;;;6.45;4.22;;;5.30;99.90;;;;;;7312389;32;20107;-55
2023/05/04 02:32:55;;;;;;;6.32;4.37;;;5.30;99.90;;;;;;7306574;32;20225;-55
2023/05/04 02:36:57;;;;;;;9.13;4.70;;;5.20;99.90;;;;;;7301757;32;20129;-54
2023/05/04 02:40:59;;;;;;;6.32;4.18;;;5.20;99.90;;;;;;7304244;32;20597;-54
2023/05/04 02:45:01;;;;;;;7.93;4.28;;;5.10;99.90;;;;;;7312138;32;20245;-54
2023/05/04 02:49:02;;;;;;;11.65;4.62;;;5.00;99.90;;;;;;7310775;32;20167;-56
2023/05/04 02:53:04;;;;;;;5.35;3.85;;;5.00;99.90;;;;;;7313483;32;20152;-54
2023/05/04 02:57:06;;;;;;;6.55;4.40;;;5.00;99.90;;;;;;7300722;32;20583;-56
2023/05/04 03:01:08;;;;;;;5.90;4.30;;;5.00;99.90;;;;;;7308223;32;20171;-54
2023/05/04 03:05:09;;;;;;;7.68;4.40;;;4.90;99.90;;;;;;7320756;32;20124;-54
2023/05/04 03:09:11;;;;;;;6.70;3.85;;;4.90;99.90;;;;;;7300883;32;20245;-54
2023/05/04 03:13:13;;;;;;;6.62;5.07;;;4.80;99.90;;;;;;7302005;32;20243;-56
2023/05/04 03:17:15;;;;;;;5.80;3.87;;;4.80;99.90;;;;;;7302500;32;20452;-56
2023/05/04 03:21:16;;;;;;;7.15;4.00;;;4.70;99.90;;;;;;7309254;32;20224;-55
2023/05/04 03:25:18;;;;;;;6.85;4.75;;;4.70;99.90;;;;;;7312076;32;20129;-55
2023/05/04 03:29:20;;;;;;;7.87;4.25;;;4.70;99.90;;;;;;7307232;32;20464;-54
2023/05/04 03:33:21;;;;;;;8.10;4.65;;;4.60;99.90;;;;;;7310578;32;20186;-54
2023/05/04 03:37:23;;;;;;;8.90;4.03;;;4.60;99.90;;;;;;7305634;32;20751;-55
2023/05/04 03:41:25;;;;;;;6.85;4.60;;;4.60;99.90;;;;;;7301437;32;20127;-55
2023/05/04 03:45:27;;;;;;;6.62;4.10;;;4.50;99.90;;;;;;7304731;32;20227;-55
2023/05/04 03:49:29;;;;;;;7.75;4.15;;;4.50;99.90;;;;;;7304522;32;20258;-55
2023/05/04 03:53:33;;;;;;;7.68;4.70;;;4.40;99.90;;;;;;7311891;32;20139;-55
2023/05/04 03:57:34;;;;;;;5.80;4.22;;;4.40;99.90;;;;;;7303889;32;20132;-54
2023/05/04 04:01:36;;;;;;;7.93;4.30;;;4.30;99.90;;;;;;7315803;32;20262;-55
2023/05/04 04:05:38;;;;;;;6.60;4.22;;;4.30;99.90;;;;;;7304001;32;20194;-54
2023/05/04 04:09:40;;;;;;;9.93;4.30;;;4.40;99.90;;;;;;7304107;32;20224;-54
2023/05/04 04:13:41;;;;;;;8.35;4.20;;;4.30;99.90;;;;;;7304988;32;20168;-54
2023/05/04 04:17:43;;;;;;;7.40;4.78;;;4.30;99.90;;;;;;7316809;32;20111;-55
2023/05/04 04:21:45;;;;;;;7.53;4.57;;;4.30;99.90;;;;;;7305207;32;20144;-55
2023/05/04 04:25:47;;;;;;;5.90;4.10;;;4.30;99.90;;;;;;7302571;32;20202;-55
2023/05/04 04:29:49;;;;;;;5.40;4.30;;;4.30;99.90;;;;;;7306498;32;20111;-54
2023/05/04 04:33:50;;;;;;;8.18;4.78;;;4.30;99.90;;;;;;7306845;32;20108;-54
2023/05/04 04:37:52;;;;;;;6.30;4.05;;;4.30;99.90;;;;;;7305236;32;20446;-54
2023/05/04 04:41:53;;;;;;;6.62;4.28;;;4.30;99.90;;;;;;7306924;32;20804;-55
2023/05/04 04:45:55;;;;;;;11.07;4.55;;;4.30;99.90;;;;;;7308196;32;20194;-54
2023/05/04 04:49:57;;;;;;;6.55;4.45;;;4.40;99.90;;;;;;7308335;32;20233;-55
2023/05/04 04:53:59;;;;;;;6.12;4.00;;;4.50;99.90;;;;;;7305678;32;20268;-55
2023/05/04 04:58:00;;;;;;;7.25;4.37;;;4.60;99.90;;;;;;7306423;32;20388;-56
2023/05/04 05:02:02;;;;;;;12.00;7.95;;;4.70;99.90;;;;;;7308515;32;20598;-56
2023/05/04 05:06:04;;;;;;;6.00;4.53;;;4.80;99.90;;;;;;7305414;32;20915;-55
2023/05/04 05:10:07;;;;;;;7.45;4.30;;;4.90;99.90;;;;;;7302392;32;20311;-55
2023/05/04 05:14:09;;;;;;;9.48;4.43;;;5.00;99.90;;;;;;7300593;32;20242;-55
2023/05/04 05:18:11;;;;;;;12.80;6.45;;;5.20;99.90;;;;;;7308839;32;20112;-57
2023/05/04 05:22:12;;;;;;;8.55;5.10;;;5.30;99.90;;;;;;7302419;32;20108;-55
2023/05/04 05:26:14;;;;;;;8.13;4.32;;;5.40;99.90;;;;;;7305915;32;20179;-55
2023/05/04 05:30:16;;;;;;;7.78;4.90;;;5.60;99.90;;;;;;7304223;32;20186;-55
2023/05/04 05:34:17;;;;;;;7.40;4.78;;;5.80;99.90;;;;;;7305643;32;20236;-55
2023/05/04 05:38:20;;;;;;;7.03;3.97;;;6.10;99.90;;;;;;7320514;32;20112;-54
2023/05/04 05:42:22;;;;;;;6.43;3.92;;;6.40;99.90;;;;;;7303935;32;21008;-54
2023/05/04 05:46:23;;;;;;;9.93;4.90;;;6.70;99.90;;;;;;7315112;32;20203;-55
2023/05/04 05:50:25;;;;;;;24.08;15.57;;;7.00;99.90;;;;;;7307588;32;20135;-55
2023/05/04 05:54:30;;;;;;;9.55;5.37;;;7.30;99.90;;;;;;7304446;32;20286;-55
2023/05/04 05:58:31;;;;;;;7.90;4.35;;;7.70;99.90;;;;;;7310023;32;20112;-56
2023/05/04 06:02:33;;;;;;;6.82;4.40;;;8.00;99.90;;;;;;7309277;32;20176;-55
2023/05/04 06:06:35;;;;;;;7.05;4.05;;;8.40;99.90;;;;;;7302461;32;20119;-55
2023/05/04 06:10:37;;;;;;;6.57;3.47;;;8.70;99.90;;;;;;7311167;32;20565;-57
2023/05/04 06:14:38;;;;;;;5.37;3.37;;;9.00;99.90;;;;;;7313181;32;20606;-55
2023/05/04 06:18:40;;;;;;;5.07;3.20;;;9.30;99.90;;;;;;7314122;32;20112;-53
2023/05/04 06:22:42;;;;;;;5.68;2.83;;;9.60;99.90;;;;;;7313121;32;20111;-56
2023/05/04 06:26:43;;;;;;;5.18;3.03;;;10.00;99.90;;;;;;7318775;32;20308;-55
2023/05/04 06:30:45;;;;;;;9.07;2.80;;;10.20;99.90;;;;;;7301165;32;20562;-54
2023/05/04 06:34:47;;;;;;;8.88;3.15;;;10.50;99.90;;;;;;7307803;32;20333;-55
2023/05/04 06:38:49;;;;;;;6.75;3.03;;;10.80;99.90;;;;;;7306603;32;20112;-54
2023/05/04 06:42:50;;;;;;;11.35;2.83;;;11.10;99.90;;;;;;7310491;32;20115;-54
2023/05/04 06:46:53;;;;;;;4.35;2.10;;;11.40;99.90;;;;;;7308611;32;20129;-55
2023/05/04 06:50:55;;;;;;;5.28;2.30;;;11.70;99.90;;;;;;7315120;32;20163;-54
2023/05/04 06:54:58;;;;;;;7.12;2.90;;;12.40;99.90;;;;;;7313628;32;20115;-56
2023/05/04 06:59:00;;;;;;;6.85;2.92;;;12.90;99.90;;;;;;7309482;32;20530;-55
2023/05/04 07:03:02;;;;;;;8.68;2.70;;;13.50;99.90;;;;;;7306034;32;20227;-55
2023/05/04 07:07:04;;;;;;;8.57;2.87;;;14.00;99.90;;;;;;7315305;32;20258;-56
2023/05/04 07:11:05;;;;;;;6.65;2.45;;;14.70;99.90;;;;;;7311241;32;20369;-56
2023/05/04 07:15:08;;;;;;;4.20;2.45;;;15.20;99.90;;;;;;7305733;32;20122;-55
2023/05/04 07:19:10;;;;;;;4.35;2.30;;;15.40;99.90;;;;;;7310681;32;20252;-55
2023/05/04 07:23:12;;;;;;;5.47;2.72;;;15.60;99.90;;;;;;7309085;32;20242;-55
2023/05/04 07:27:13;;;;;;;7.90;2.30;;;15.90;99.90;;;;;;7312004;32;20112;-55
2023/05/04 07:31:15;;;;;;;5.22;2.12;;;16.40;99.90;;;;;;7303084;32;20163;-55
2023/05/04 07:35:17;;;;;;;7.78;2.90;;;17.10;99.90;;;;;;7309770;32;20466;-56
2023/05/04 07:39:18;;;;;;;4.90;2.50;;;17.10;99.90;;;;;;7309259;32;20614;-55
2023/05/04 07:43:21;;;;;;;4.20;2.30;;;17.30;99.90;;;;;;7306995;32;20223;-56
2023/05/04 07:47:22;;;;;;;4.75;2.37;;;17.10;99.90;;;;;;7315414;32;20100;-55
2023/05/04 07:51:25;;;;;;;5.80;2.33;;;17.00;99.90;;;;;;7308910;32;20111;-54
2023/05/04 07:55:28;;;;;;;5.40;2.65;;;16.90;99.90;;;;;;7307009;32;20528;-54
2023/05/04 07:59:30;;;;;;;4.75;2.15;;;16.80;99.90;;;;;;7308626;32;20112;-54
2023/05/04 08:03:32;;;;;;;6.65;2.10;;;17.00;99.90;;;;;;7303724;32;20673;-54
2023/05/04 08:07:34;;;;;;;7.15;2.10;;;17.30;99.90;;;;;;7297241;32;20530;-55
2023/05/04 08:11:37;;;;;;;5.53;1.83;;;17.40;99.90;;;;;;7307156;32;20111;-56
2023/05/04 08:15:40;;;;;;;5.57;2.40;;;17.50;99.90;;;;;;7306445;32;20127;-55
2023/05/04 08:19:41;;;;;;;5.40;2.15;;;17.60;99.90;;;;;;7308609;32;20111;-54
2023/05/04 08:23:43;;;;;;;5.85;2.22;;;17.70;99.90;;;;;;7307405;32;20172;-55
2023/05/04 08:27:45;;;;;;;6.45;2.30;;;17.90;99.90;;;;;;7309262;32;20173;-55
2023/05/04 08:31:48;;;;;;;4.45;2.30;;;18.30;99.90;;;;;;7307994;32;20147;-55
2023/05/04 08:35:50;;;;;;;2.65;2.05;;;18.80;99.90;;;;;;7301154;32;20827;-56
2023/05/04 08:39:52;;;;;;;4.20;2.53;;;19.10;99.90;;;;;;7308047;32;20178;-57
2023/05/04 08:43:54;;;;;;;5.40;2.80;;;20.00;96.90;;;;;;7307263;32;20415;-55
2023/05/04 08:47:55;;;;;;;3.85;2.20;;;20.50;95.00;;;;;;7317076;32;20169;-55
2023/05/04 08:51:59;;;;;;;3.35;2.10;;;21.00;98.60;;;;;;7306145;32;20775;-58
2023/05/04 08:56:03;;;;;;;5.15;2.67;;;21.70;95.90;;;;;;7291939;32;20182;-55
2023/05/04 09:00:06;;;;;;;4.22;2.85;;;22.20;91.00;;;;;;7299247;32;20191;-56
2023/05/04 09:04:09;;;;;;;3.70;2.90;;;23.00;90.10;;;;;;7296762;32;20367;-55
2023/05/04 09:08:12;;;;;;;6.47;3.58;;;23.40;80.10;;;;;;7304219;32;20709;-55
2023/05/04 09:12:13;;;;;;;3.12;2.30;;;23.60;77.70;;;;;;7301712;32;20274;-56
2023/05/04 09:16:15;;;;;;;4.95;2.83;;;24.00;77.00;;;;;;7311239;32;20104;-55
2023/05/04 09:20:17;;;;;;;5.82;2.90;;;23.80;73.70;;;;;;7310781;32;20107;-55
2023/05/04 09:24:28;;;;;;;4.65;3.08;;;24.40;77.00;;;;;;7311180;32;20099;-54
2023/05/04 09:28:35;;;;;;;6.78;3.05;;;24.50;73.80;;;;;;7316366;32;20167;-55
2023/05/04 09:32:45;;;;;;;6.28;2.90;;;24.40;69.00;;;;;;7318427;32;20330;-56
2023/05/04 09:37:01;;;;;;;4.75;2.67;;;24.40;70.40;;;;;;7317123;32;20127;-56
2023/05/04 09:41:02;;;;;;;4.60;2.58;;;24.70;75.80;;;;;;7300620;32;20219;-56
2023/05/04 09:45:06;;;;;;;3.78;2.62;;;25.20;69.90;;;;;;7308969;32;20162;-57
2023/05/04 09:49:08;;;;;;;5.35;2.90;;;25.20;68.50;;;;;;7307234;32;20191;-56
2023/05/04 09:53:10;;;;;;;6.32;3.40;;;25.20;66.30;;;;;;7310272;32;20874;-56
2023/05/04 09:57:14;;;;;;;7.28;3.20;;;25.10;64.10;;;;;;7302948;32;20103;-56
2023/05/04 10:01:16;;;;;;;5.47;2.75;;;25.30;68.10;;;;;;7303513;32;20691;-56
2023/05/04 10:05:20;;;;;;;6.95;2.87;;;24.80;68.20;;;;;;7302354;32;20131;-56
2023/05/04 10:09:30;;;;;;;5.28;2.80;;;25.20;68.90;;;;;;7309808;32;20238;-55
2023/05/04 10:13:32;;;;;;;5.57;2.92;;;25.40;66.60;;;;;;7315353;32;20107;-56
2023/05/04 10:17:52;;;;;;;5.57;2.62;;;25.20;64.10;;;;;;7304748;32;20116;-55
2023/05/04 10:22:16;;;;;;;5.03;2.87;;;25.10;67.50;;;;;;7310608;32;20112;-56
2023/05/04 10:26:46;;;;;;;4.53;2.92;;;25.10;66.20;;;;;;7298618;32;20262;-55
2023/05/04 10:30:57;;;;;;;4.93;2.45;;;25.20;66.10;;;;;;7305380;32;20258;-56
2023/05/04 10:35:09;;;;;;;3.65;2.78;;;25.30;65.20;;;;;;7300643;32;20255;-56
2023/05/04 10:39:19;;;;;;;7.12;2.60;;;25.30;66.60;;;;;;7306169;32;20272;-57
2023/05/04 10:43:25;;;;;;;7.50;2.67;;;25.50;64.80;;;;;;7304146;32;20277;-57
2023/05/04 10:47:34;;;;;;;5.93;2.08;;;25.10;62.90;;;;;;7312354;32;20215;-56
2023/05/04 10:51:36;;;;;;;6.75;2.55;;;25.30;65.10;;;;;;7302571;32;21373;-57
2023/05/04 10:55:50;;;;;;;6.55;2.25;;;25.40;63.00;;;;;;7301996;32;20149;-57
2023/05/04 10:59:56;;;;;;;6.57;2.35;;;25.70;59.70;;;;;;7301043;32;20283;-57
2023/05/04 11:03:58;;;;;;;2.25;1.80;;;25.50;60.50;;;;;;7303698;32;20236;-57
2023/05/04 11:08:12;;;;;;;3.47;1.98;;;25.70;62.60;;;;;;7303775;32;20243;-57
2023/05/04 11:12:15;;;;;;;4.07;2.40;;;25.50;59.00;;;;;;7302452;32;20135;-57
2023/05/04 11:16:24;;;;;;;6.10;2.00;;;25.70;59.20;;;;;;7302360;32;20187;-57
2023/05/04 11:20:26;;;;;;;5.12;2.17;;;26.00;58.40;;;;;;7306322;32;20103;-57
2023/05/04 11:24:42;;;;;;;2.97;1.52;;;25.80;60.70;;;;;;7311315;32;20470;-57
2023/05/04 11:28:43;;;;;;;4.20;1.90;;;26.10;58.20;;;;;;7305104;32;20119;-57
2023/05/04 11:32:45;;;;;;;5.78;1.90;;;25.70;55.30;;;;;;7302693;32;20164;-57
2023/05/04 11:36:48;;;;;;;4.03;1.85;;;25.90;56.60;;;;;;7299454;32;20105;-58
2023/05/04 11:40:50;;;;;;;3.28;1.62;;;26.20;55.90;;;;;;7303126;32;20104;-57
2023/05/04 11:44:54;;;;;;;4.03;1.75;;;26.10;56.20;;;;;;7302867;32;20824;-57
2023/05/04 11:48:57;;;;;;;3.42;1.50;;;26.50;55.00;;;;;;7306256;32;20123;-57
2023/05/04 11:53:03;;;;;;;4.22;1.70;;;26.70;53.50;;;;;;7303988;32;20199;-58
2023/05/04 11:57:04;;;;;;;3.97;1.60;;;26.80;53.70;;;;;;7305220;32;20681;-57
2023/05/04 12:01:06;;;;;;;6.40;1.83;;;27.20;51.50;;;;;;7306339;32;20190;-57
2023/05/04 12:05:12;;;;;;;4.03;1.90;;;27.00;52.30;;;;;;7308614;32;20837;-57
2023/05/04 12:09:15;;;;;;;4.05;1.58;;;27.70;50.50;;;;;;7310058;32;20645;-57
2023/05/04 12:13:16;;;;;;;2.17;1.17;;;28.80;51.20;;;;;;7297636;32;20135;-57
2023/05/04 12:17:19;;;;;;;3.12;1.80;;;29.30;48.30;;;;;;7301167;32;20127;-55
2023/05/04 12:21:21;;;;;;;5.03;1.67;;;29.30;46.50;;;;;;7300621;32;20302;-56
2023/05/04 12:25:23;;;;;;;2.78;1.23;;;29.90;46.20;;;;;;7310193;32;20956;-56
2023/05/04 12:29:25;;;;;;;4.47;1.40;;;30.30;47.60;;;;;;7302434;32;20465;-57
2023/05/04 12:33:27;;;;;;;2.95;1.40;;;30.90;46.50;;;;;;7301747;32;20282;-56
2023/05/04 12:37:29;;;;;;;3.78;1.60;;;29.70;44.40;;;;;;7300188;32;20194;-56
2023/05/04 12:41:31;;;;;;;3.55;1.33;;;29.60;41.70;;;;;;7297794;32;20108;-57
2023/05/04 12:45:33;;;;;;;1.75;1.08;;;29.30;46.30;;;;;;7306887;32;20200;-55
2023/05/04 12:49:34;;;;;;;6.87;1.40;;;30.40;44.60;;;;;;7306091;32;20582;-54
2023/05/04 12:53:36;;;;;;;2.95;1.17;;;31.00;44.10;;;;;;7298359;32;20108;-54
2023/05/04 12:57:38;;;;;;;4.28;1.25;;;31.10;42.80;;;;;;7305904;32;21390;-53
2023/05/04 13:01:40;;;;;;;4.07;1.40;;;30.50;42.60;;;;;;7299470;32;20191;-54
2023/05/04 13:05:42;;;;;;;6.82;1.87;;;28.90;44.40;;;;;;7304974;32;20143;-53
2023/05/04 13:09:44;;;;;;;2.20;1.33;;;28.40;43.80;;;;;;7303726;32;20258;-56
2023/05/04 13:13:46;;;;;;;6.53;1.90;;;27.50;43.80;;;;;;7302552;32;20165;-56
2023/05/04 13:17:48;;;;;;;6.65;1.73;;;27.70;44.10;;;;;;7297752;32;20111;-56
2023/05/04 13:21:50;;;;;;;2.25;1.17;;;27.90;45.00;;;;;;7293940;32;20116;-58
2023/05/04 13:25:52;;;;;;;3.58;1.50;;;28.10;44.80;;;;;;7301425;32;20115;-56
2023/05/04 13:29:53;;;;;;;3.28;1.30;;;27.80;46.40;;;;;;7300372;32;20127;-55
2023/05/04 13:33:55;;;;;;;3.28;1.48;;;28.10;46.80;;;;;;7308778;32;20131;-56
2023/05/04 13:37:57;;;;;;;5.07;1.42;;;28.30;44.30;;;;;;7303095;32;20103;-58
2023/05/04 13:41:59;;;;;;;4.28;1.42;;;28.60;42.00;;;;;;7303402;32;20313;-60
2023/05/04 13:46:03;;;;;;;2.15;1.35;;;29.20;44.50;;;;;;7311312;32;20258;-56
2023/05/04 13:50:06;;;;;;;2.05;1.30;;;29.80;44.90;;;;;;7311342;32;20109;-55
2023/05/04 13:54:08;;;;;;;2.47;1.30;;;30.50;40.30;;;;;;7300453;32;20135;-54
2023/05/04 13:58:10;;;;;;;3.17;1.12;;;30.60;41.00;;;;;;7305010;32;20191;-56
2023/05/04 14:02:12;;;;;;;2.62;1.20;;;30.30;39.80;;;;;;7307410;32;20265;-55
2023/05/04 14:06:13;;;;;;;3.03;1.20;;;30.20;40.30;;;;;;7316415;32;20174;-57
2023/05/04 14:10:15;;;;;;;1.73;1.00;;;30.00;38.60;;;;;;7310388;32;20155;-56
2023/05/04 14:14:17;;;;;;;4.50;1.30;;;28.90;38.90;;;;;;7304781;32;20258;-56
2023/05/04 14:18:19;;;;;;;3.65;1.23;;;28.40;38.80;;;;;;7314284;32;20116;-56
2023/05/04 14:22:20;;;;;;;2.55;1.33;;;28.60;42.10;;;;;;7308029;32;20122;-57
2023/05/04 14:26:22;;;;;;;4.45;1.55;;;28.60;40.10;;;;;;7302665;32;20184;-54
2023/05/04 14:30:25;;;;;;;8.18;1.35;;;28.30;39.20;;;;;;7299646;32;20222;-55
2023/05/04 14:34:27;;;;;;;2.70;1.30;;;28.00;40.40;;;;;;7309399;32;20523;-56
2023/05/04 14:38:29;;;;;;;3.12;1.55;;;28.10;41.40;;;;;;7299730;32;20266;-56
2023/05/04 14:42:31;;;;;;;2.67;1.30;;;28.00;42.00;;;;;;7307326;32;20245;-56
2023/05/04 14:46:33;;;;;;;3.10;1.58;;;28.20;41.40;;;;;;7304587;32;20162;-57
2023/05/04 14:50:35;;;;;;;2.35;1.30;;;27.50;41.80;;;;;;7300311;32;20142;-57
2023/05/04 14:54:36;;;;;;;4.68;1.20;;;27.40;45.20;;;;;;7301901;32;20156;-57
2023/05/04 14:58:38;;;;;;;6.22;1.50;;;27.50;43.70;;;;;;7303534;32;20194;-56
2023/05/04 15:02:40;;;;;;;3.80;1.50;;;27.50;43.00;;;;;;7302658;32;20136;-56
2023/05/04 15:06:42;;;;;;;1.85;1.20;;;27.00;43.50;;;;;;7301403;32;20464;-56
2023/05/04 15:10:43;;;;;;;2.83;1.40;;;26.70;45.30;;;;;;7298240;32;20145;-55
2023/05/04 15:14:45;;;;;;;2.80;1.50;;;26.00;45.20;;;;;;7305133;32;20140;-54
2023/05/04 15:18:47;;;;;;;3.50;1.62;;;25.50;45.00;;;;;;7305605;32;20135;-54
2023/05/04 15:22:50;;;;;;;3.12;1.37;;;25.20;48.70;;;;;;7309296;32;20131;-54
2023/05/04 15:26:55;;;;;;;3.63;1.63;;;25.00;49.90;;;;;;7304368;32;20553;-54
2023/05/04 15:30:56;;;;;;;2.78;1.55;;;24.80;48.00;;;;;;7301980;32;20107;-55
2023/05/04 15:34:58;;;;;;;2.92;1.60;;;24.70;47.40;;;;;;7318505;32;20636;-56
2023/05/04 15:39:08;;;;;;;3.53;1.87;;;24.40;48.70;;;;;;7297447;32;20171;-56
2023/05/04 15:43:10;;;;;;;4.82;1.52;;;24.40;49.40;;;;;;7305442;32;20611;-56
2023/05/04 15:47:12;;;;;;;3.78;1.35;;;24.40;46.40;;;;;;7306321;32;20107;-56
2023/05/04 15:51:14;;;;;;;3.92;1.50;;;24.30;49.00;;;;;;7305796;32;20270;-56
2023/05/04 15:55:16;;;;;;;5.53;1.50;;;24.20;46.40;;;;;;7308983;32;20159;-56
2023/05/04 15:59:27;;;;;;;9.50;1.67;;;24.00;47.90;;;;;;7307483;32;20131;-56
2023/05/04 16:03:30;;;;;;;3.85;1.35;;;23.80;47.70;;;;;;7309772;32;20513;-57
2023/05/04 16:07:32;;;;;;;3.85;1.77;;;23.40;47.30;;;;;;7307125;32;20451;-56
2023/05/04 16:11:35;;;;;;;1.55;1.33;;;22.90;46.50;;;;;;7310354;32;20169;-57
2023/05/04 16:15:37;;;;;;;2.15;1.30;;;22.90;47.80;;;;;;7302122;32;20502;-56
2023/05/04 16:19:39;;;;;;;3.58;1.33;;;23.10;48.70;;;;;;7305826;32;20248;-56
2023/05/04 16:23:41;;;;;;;4.75;1.67;;;23.30;48.00;;;;;;7314231;32;20194;-57
2023/05/04 16:27:43;;;;;;;4.20;1.40;;;23.10;48.90;;;;;;7311205;32;20458;-58
2023/05/04 16:31:47;;;;;;;2.25;1.45;;;23.30;48.80;;;;;;7314733;32;20138;-57
2023/05/04 16:35:49;;;;;;;3.42;1.40;;;23.10;48.10;;;;;;7309949;32;20359;-57
2023/05/04 16:39:52;;;;;;;7.00;1.50;;;23.10;48.50;;;;;;7307316;32;20530;-57
2023/05/04 16:43:54;;;;;;;3.62;1.50;;;23.10;48.80;;;;;;7313530;32;20210;-56
2023/05/04 16:47:56;;;;;;;3.45;1.40;;;23.10;49.80;;;;;;7309049;32;20099;-56
2023/05/04 16:51:58;;;;;;;2.58;1.58;;;23.00;49.30;;;;;;7323140;32;20130;-57
2023/05/04 16:56:00;;;;;;;2.75;1.42;;;22.80;50.00;;;;;;7303223;32;20206;-57
2023/05/04 17:00:03;;;;;;;1.90;1.60;;;22.90;50.20;;;;;;7303998;32;20150;-56
2023/05/04 17:04:05;;;;;;;3.95;1.55;;;22.60;50.60;;;;;;7307652;32;20551;-56
2023/05/04 17:08:07;;;;;;;3.55;1.55;;;22.30;51.60;;;;;;7303725;32;20132;-56
2023/05/04 17:12:08;;;;;;;5.15;1.60;;;22.30;52.30;;;;;;7300962;32;20162;-56
2023/05/04 17:16:10;;;;;;;4.75;1.75;;;22.00;53.20;;;;;;7297978;32;20470;-57
2023/05/04 17:20:13;;;;;;;3.25;1.50;;;22.00;55.00;;;;;;7297632;32;20257;-57
2023/05/04 17:24:17;;;;;;;6.25;2.00;;;21.80;53.50;;;;;;7302025;32;20289;-56
2023/05/04 17:28:18;;;;;;;2.62;1.77;;;21.60;54.60;;;;;;7297976;32;20130;-56
2023/05/04 17:32:20;;;;;;;2.42;1.50;;;21.60;55.00;;;;;;7301078;32;20227;-56
2023/05/04 17:36:22;;;;;;;2.55;1.90;;;21.40;54.80;;;;;;7309724;32;20671;-57
2023/05/04 17:40:24;;;;;;;4.45;2.17;;;21.20;56.20;;;;;;7305131;32;20126;-57
2023/05/04 17:44:27;;;;;;;5.85;2.33;;;21.10;57.60;;;;;;7307085;32;20534;-56
2023/05/04 17:48:36;;;;;;;6.80;2.03;;;21.10;57.80;;;;;;7307638;32;20861;-57
2023/05/04 17:52:38;;;;;;;4.45;2.08;;;21.10;58.20;;;;;;7310308;32;20119;-56
2023/05/04 17:56:40;;;;;;;6.75;1.90;;;21.10;58.60;;;;;;7308437;32;20222;-56
2023/05/04 18:00:41;;;;;;;4.32;2.30;;;21.10;59.50;;;;;;7305324;32;20112;-57
2023/05/04 18:04:43;;;;;;;3.62;2.30;;;20.90;59.90;;;;;;7302790;32;20515;-57
2023/05/04 18:08:45;;;;;;;6.47;2.08;;;20.90;60.30;;;;;;7313403;32;20111;-56
2023/05/04 18:12:46;;;;;;;7.90;2.10;;;20.80;59.80;;;;;;7308494;32;20218;-56
2023/05/04 18:16:48;;;;;;;3.62;2.20;;;20.80;61.30;;;;;;7308408;32;20108;-56
2023/05/04 18:20:50;;;;;;;3.53;2.05;;;20.70;62.80;;;;;;7309283;32;20289;-56
2023/05/04 18:24:51;;;;;;;7.18;2.10;;;20.60;62.80;;;;;;7307856;32;20160;-57
2023/05/04 18:28:53;;;;;;;2.67;2.03;;;20.50;63.30;;;;;;7306221;32;20160;-57
2023/05/04 18:32:56;;;;;;;2.97;1.95;;;20.50;63.50;;;;;;7302394;32;20227;-56
2023/05/04 18:36:58;;;;;;;5.40;2.42;;;20.40;64.50;;;;;;7301314;32;20786;-56
2023/05/04 18:40:59;;;;;;;6.07;2.55;;;20.30;64.70;;;;;;7302263;32;20112;-57
2023/05/04 18:45:01;;;;;;;4.03;2.17;;;20.20;65.30;;;;;;7305433;32;20607;-57
2023/05/04 18:49:03;;;;;;;3.05;1.98;;;20.10;66.00;;;;;;7309346;32;20138;-56
2023/05/04 18:53:04;;;;;;;4.62;2.50;;;20.00;68.50;;;;;;7310667;32;20729;-55
2023/05/04 18:57:09;;;;;;;4.93;2.00;;;19.70;68.30;;;;;;7302632;32;20767;-56
2023/05/04 19:01:11;;;;;;;5.93;2.65;;;19.50;70.30;;;;;;7297217;32;20357;-55
2023/05/04 19:05:13;;;;;;;4.40;2.62;;;19.30;73.40;;;;;;7306595;32;20314;-55
2023/05/04 19:09:15;;;;;;;3.78;2.53;;;19.10;76.10;;;;;;7309555;32;20173;-55
2023/05/04 19:13:19;;;;;;;4.05;2.53;;;18.80;78.20;;;;;;7311222;32;20415;-55
2023/05/04 19:17:21;;;;;;;6.28;2.90;;;18.70;81.20;;;;;;7304870;32;20179;-55
2023/05/04 19:21:23;;;;;;;5.70;2.53;;;18.40;82.50;;;;;;7307356;32;20136;-55
2023/05/04 19:25:25;;;;;;;7.10;3.17;;;18.20;84.10;;;;;;7304312;32;20171;-54
2023/05/04 19:29:46;;;;;;;3.92;2.87;;;18.00;88.70;;;;;;7309182;32;20095;-54
2023/05/04 19:33:48;;;;;;;6.00;3.12;;;17.80;90.70;;;;;;7302456;32;20144;-55
2023/05/04 19:37:50;;;;;;;4.50;2.55;;;17.60;92.50;;;;;;7306683;32;20112;-54
2023/05/04 19:41:52;;;;;;;4.35;2.90;;;17.40;94.00;;;;;;7302010;32;20233;-55
2023/05/04 19:45:54;;;;;;;3.80;2.90;;;17.30;96.80;;;;;;7309317;32;20131;-57
2023/05/04 19:49:57;;;;;;;5.18;2.67;;;17.00;97.30;;;;;;7307464;32;20728;-55
2023/05/04 19:53:59;;;;;;;6.03;3.03;;;16.90;98.60;;;;;;7304436;32;20108;-55
2023/05/04 19:58:01;;;;;;;5.43;3.20;;;16.70;99.40;;;;;;7308540;32;20232;-56
2023/05/04 20:02:02;;;;;;;5.75;3.30;;;16.50;99.90;;;;;;7306895;32;20545;-56
2023/05/04 20:06:04;;;;;;;6.10;3.22;;;16.40;99.90;;;;;;7303759;32;20104;-55
2023/05/04 20:10:07;;;;;;;5.32;3.15;;;16.40;99.90;;;;;;7308723;32;20788;-56
2023/05/04 20:14:09;;;;;;;3.37;2.78;;;16.30;99.90;;;;;;7303178;32;20119;-56
2023/05/04 20:18:11;;;;;;;5.25;2.80;;;16.30;99.90;;;;;;7300744;32;20210;-57
2023/05/04 20:22:13;;;;;;;6.82;3.17;;;16.30;99.90;;;;;;7295520;32;20698;-56
2023/05/04 20:26:15;;;;;;;4.18;2.62;;;16.30;99.90;;;;;;7320109;32;20119;-55
2023/05/04 20:30:16;;;;;;;4.95;3.03;;;16.30;99.90;;;;;;7303841;32;20120;-55
2023/05/04 20:34:18;;;;;;;5.30;3.22;;;16.30;99.90;;;;;;7301366;32;20126;-56
2023/05/04 20:38:20;;;;;;;4.05;2.87;;;16.40;99.90;;;;;;7298911;32;20308;-55
2023/05/04 20:42:21;;;;;;;7.12;2.78;;;16.40;99.90;;;;;;7303871;32;20134;-56
2023/05/04 20:46:23;;;;;;;6.05;2.95;;;16.40;99.90;;;;;;7298659;32;20104;-55
2023/05/04 20:50:25;;;;;;;8.93;4.05;;;16.50;99.90;;;;;;7307462;32;20164;-54
2023/05/04 20:54:26;;;;;;;4.82;2.30;;;16.60;99.90;;;;;;7305823;32;20111;-55
2023/05/04 20:58:28;;;;;;;5.82;2.70;;;16.60;99.90;;;;;;7304727;32;20104;-55
2023/05/04 21:02:30;;;;;;;5.65;2.60;;;16.60;99.90;;;;;;7301427;32;20229;-56
2023/05/04 21:06:31;;;;;;;3.55;2.30;;;16.60;99.90;;;;;;7306978;32;20165;-56
2023/05/04 21:10:33;;;;;;;4.97;3.03;;;16.60;99.90;;;;;;7304898;32;20353;-56